Time;durP1;ratioP1;P1;durP2;ratioP2;P2;SDS_P1;SDS_P2;PMS_P1;PMS_P2;Temp;Humidity;BMP_temperature;BMP_pressure;BME280_temperature;BME280_humidity;BME280_pressure;Samples;Min_cycle;Max_cycle;Signal;HPM_P1;HPM_P2
2021/01/25 00:02:13;;;;;;;13.73;7.60;;;3.80;86.20;;;;;;5033678;28;20096;-64
2021/01/25 00:04:39;;;;;;;12.10;7.20;;;3.80;86.20;;;;;;5033968;28;20037;-65
2021/01/25 00:07:05;;;;;;;12.77;7.60;;;3.80;86.10;;;;;;5033465;28;20034;-64
2021/01/25 00:09:31;;;;;;;12.80;7.70;;;3.80;86.00;;;;;;5033802;28;20556;-64
2021/01/25 00:11:57;;;;;;;16.07;8.07;;;3.80;86.20;;;;;;5033679;28;20033;-64
2021/01/25 00:14:23;;;;;;;10.80;7.50;;;3.80;85.80;;;;;;5033949;28;20013;-65
2021/01/25 00:16:48;;;;;;;14.57;7.87;;;3.80;85.70;;;;;;5033587;28;20144;-65
2021/01/25 00:19:14;;;;;;;12.67;8.00;;;3.80;86.10;;;;;;5033619;28;20029;-65
2021/01/25 00:21:40;;;;;;;12.17;7.53;;;3.80;85.70;;;;;;5033411;28;20054;-64
2021/01/25 00:24:06;;;;;;;12.57;7.40;;;3.70;85.50;;;;;;5033612;28;20025;-65
2021/01/25 00:26:32;;;;;;;9.37;6.63;;;3.70;85.40;;;;;;5033478;28;20116;-65
2021/01/25 00:28:57;;;;;;;11.03;6.33;;;3.70;85.80;;;;;;5033391;28;20432;-65
2021/01/25 00:31:23;;;;;;;11.83;6.30;;;3.70;85.80;;;;;;5033222;28;20432;-67
2021/01/25 00:33:49;;;;;;;11.33;6.43;;;3.70;85.50;;;;;;5033345;28;20030;-66
2021/01/25 00:36:14;;;;;;;8.30;5.20;;;3.70;85.10;;;;;;5033398;28;20164;-64
2021/01/25 00:38:40;;;;;;;9.87;6.07;;;3.60;85.00;;;;;;5033318;28;20026;-66
2021/01/25 00:41:06;;;;;;;9.10;5.57;;;3.60;84.80;;;;;;5033047;28;20393;-64
2021/01/25 00:43:31;;;;;;;8.53;5.50;;;3.60;85.20;;;;;;5032888;28;20048;-65
2021/01/25 00:45:57;;;;;;;9.10;5.50;;;3.60;85.00;;;;;;5032888;28;20021;-66
2021/01/25 00:48:23;;;;;;;8.20;5.17;;;3.60;85.20;;;;;;5033262;28;20057;-65
2021/01/25 00:50:49;;;;;;;8.40;5.80;;;3.60;85.30;;;;;;5032892;28;20064;-66
2021/01/25 00:53:14;;;;;;;6.70;4.43;;;3.60;85.30;;;;;;5033076;28;20363;-65
2021/01/25 00:55:40;;;;;;;7.40;4.33;;;3.60;85.10;;;;;;5048207;28;20113;-65
2021/01/25 00:58:06;;;;;;;8.13;4.17;;;3.60;84.70;;;;;;5032745;28;20060;-66
2021/01/25 01:00:31;;;;;;;6.23;3.97;;;3.60;84.90;;;;;;5033021;28;20036;-65
2021/01/25 01:02:57;;;;;;;6.53;3.97;;;3.60;84.80;;;;;;5033070;28;20022;-65
2021/01/25 01:05:23;;;;;;;6.70;3.77;;;3.60;84.90;;;;;;5032487;28;20026;-66
2021/01/25 01:07:48;;;;;;;7.00;3.87;;;3.60;84.60;;;;;;5032472;28;20112;-64
2021/01/25 01:10:14;;;;;;;5.97;3.30;;;3.60;84.50;;;;;;5032957;28;20028;-65
2021/01/25 01:12:40;;;;;;;5.97;4.17;;;3.60;85.30;;;;;;5033027;28;20029;-66
2021/01/25 01:15:10;;;;;;;4.97;3.70;;;3.50;85.30;;;;;;5032542;28;20045;-66
2021/01/25 01:17:37;;;;;;;8.73;4.10;;;3.50;85.10;;;;;;5032872;28;20026;-65
2021/01/25 01:20:04;;;;;;;5.07;3.30;;;3.50;85.50;;;;;;5032620;28;20033;-66
2021/01/25 01:22:29;;;;;;;6.30;3.80;;;3.50;85.40;;;;;;5032813;28;20112;-65
2021/01/25 01:24:55;;;;;;;6.27;3.63;;;3.50;85.20;;;;;;5032734;28;20049;-65
2021/01/25 01:27:21;;;;;;;6.30;3.90;;;3.50;85.30;;;;;;5032495;28;20033;-66
2021/01/25 01:29:47;;;;;;;6.20;3.80;;;3.50;85.00;;;;;;5031200;28;20025;-64
2021/01/25 01:32:12;;;;;;;4.80;3.53;;;3.50;85.90;;;;;;5032688;28;20065;-66
2021/01/25 01:34:38;;;;;;;5.93;4.20;;;3.40;85.80;;;;;;5032633;28;20044;-65
2021/01/25 01:37:03;;;;;;;6.93;3.90;;;3.50;85.90;;;;;;5032073;28;20132;-66
2021/01/25 01:39:29;;;;;;;5.70;3.73;;;3.50;85.70;;;;;;5032548;28;20529;-65
2021/01/25 01:41:55;;;;;;;5.07;3.40;;;3.40;85.10;;;;;;5032720;28;20034;-65
2021/01/25 01:44:20;;;;;;;5.00;3.53;;;3.40;85.20;;;;;;5034778;28;20060;-66
2021/01/25 01:46:46;;;;;;;4.87;3.40;;;3.40;85.10;;;;;;5035816;28;20055;-66
2021/01/25 01:49:13;;;;;;;6.57;3.70;;;3.40;86.10;;;;;;5036428;28;20032;-65
2021/01/25 01:51:39;;;;;;;9.83;3.93;;;3.40;85.60;;;;;;5036416;28;20029;-66
2021/01/25 01:54:06;;;;;;;6.00;3.63;;;3.40;85.50;;;;;;5036317;28;20029;-65
2021/01/25 01:56:34;;;;;;;4.47;3.20;;;3.40;85.50;;;;;;5036360;28;20026;-65
2021/01/25 01:58:59;;;;;;;5.17;3.23;;;3.40;85.50;;;;;;5033599;28;20030;-66
2021/01/25 02:01:25;;;;;;;5.47;3.13;;;3.40;85.30;;;;;;5032815;28;20036;-67
2021/01/25 02:03:51;;;;;;;6.17;3.50;;;3.40;85.40;;;;;;5032875;28;20471;-64
2021/01/25 02:06:18;;;;;;;6.07;3.40;;;3.40;85.30;;;;;;5034919;28;20053;-65
2021/01/25 02:08:47;;;;;;;4.77;3.07;;;3.40;85.20;;;;;;5035586;28;20492;-65
2021/01/25 02:11:13;;;;;;;8.70;3.00;;;3.40;85.30;;;;;;5035808;28;20033;-65
2021/01/25 02:13:40;;;;;;;5.53;3.20;;;3.40;85.30;;;;;;5035663;28;20394;-65
2021/01/25 02:16:05;;;;;;;4.83;2.93;;;3.40;85.40;;;;;;5035804;28;20108;-64
2021/01/25 02:18:34;;;;;;;4.90;3.00;;;3.40;85.20;;;;;;5035726;28;20167;-64
2021/01/25 02:21:01;;;;;;;4.47;2.70;;;3.40;85.10;;;;;;5035498;28;20041;-65
2021/01/25 02:24:05;;;;;;;3.57;2.73;;;3.40;84.90;;;;;;5035675;28;20104;-66
2021/01/25 02:27:09;;;;;;;6.97;3.50;;;3.40;85.00;;;;;;5035331;28;20124;-66
2021/01/25 02:29:35;;;;;;;4.10;2.90;;;3.40;84.70;;;;;;5035497;28;20375;-64
2021/01/25 02:32:01;;;;;;;5.80;3.33;;;3.40;85.30;;;;;;5035475;28;20104;-66
2021/01/25 02:34:30;;;;;;;6.93;3.40;;;3.40;84.50;;;;;;5035315;28;20035;-65
2021/01/25 02:36:58;;;;;;;7.67;3.33;;;3.40;84.50;;;;;;5035097;28;20471;-65
2021/01/25 02:39:25;;;;;;;5.30;3.30;;;3.40;84.50;;;;;;5035476;28;20021;-66
2021/01/25 02:41:52;;;;;;;5.80;3.10;;;3.30;84.10;;;;;;5035198;28;20099;-65
2021/01/25 02:44:18;;;;;;;4.53;3.10;;;3.30;84.20;;;;;;5035300;28;20025;-67
2021/01/25 02:46:44;;;;;;;6.53;3.60;;;3.20;84.00;;;;;;5035327;28;20381;-67
2021/01/25 02:49:11;;;;;;;4.27;3.00;;;3.20;84.10;;;;;;5035044;28;20159;-67
2021/01/25 02:51:37;;;;;;;4.10;2.93;;;3.20;84.10;;;;;;5035252;28;20030;-67
2021/01/25 02:54:03;;;;;;;6.70;3.23;;;3.20;84.20;;;;;;5034936;28;20474;-67
2021/01/25 02:56:29;;;;;;;5.97;2.90;;;3.20;83.90;;;;;;5034104;28;20036;-66
2021/01/25 02:58:55;;;;;;;4.33;2.87;;;3.20;84.10;;;;;;5034789;28;20053;-67
2021/01/25 03:01:21;;;;;;;4.30;3.17;;;3.20;84.20;;;;;;5034930;28;20036;-67
2021/01/25 03:03:50;;;;;;;4.93;3.30;;;3.20;84.60;;;;;;5035040;28;20029;-67
2021/01/25 03:06:16;;;;;;;4.13;2.90;;;3.20;84.10;;;;;;5035162;28;20587;-66
2021/01/25 03:08:45;;;;;;;5.10;2.87;;;3.10;83.90;;;;;;5034740;28;20061;-67
2021/01/25 03:11:11;;;;;;;5.30;3.37;;;3.10;84.30;;;;;;5034725;28;20044;-67
2021/01/25 03:13:37;;;;;;;3.73;2.63;;;3.10;84.40;;;;;;5034906;28;20033;-67
2021/01/25 03:16:03;;;;;;;5.33;2.57;;;3.00;84.60;;;;;;5034858;28;20104;-66
2021/01/25 03:18:29;;;;;;;4.20;2.90;;;3.00;85.00;;;;;;5034839;28;20033;-67
2021/01/25 03:20:55;;;;;;;5.00;3.03;;;3.00;84.80;;;;;;5034622;28;20137;-67
2021/01/25 03:23:22;;;;;;;3.57;2.47;;;3.10;85.20;;;;;;5034647;28;20034;-67
2021/01/25 03:25:48;;;;;;;4.80;2.20;;;3.00;84.20;;;;;;5034769;28;20079;-67
2021/01/25 03:28:14;;;;;;;3.23;1.93;;;3.00;83.90;;;;;;5034272;28;20403;-67
2021/01/25 03:30:40;;;;;;;4.23;1.70;;;3.00;83.80;;;;;;5034494;28;20501;-65
2021/01/25 03:33:06;;;;;;;3.77;2.30;;;3.00;84.20;;;;;;5034554;28;20033;-66
2021/01/25 03:35:32;;;;;;;3.03;2.00;;;3.00;84.40;;;;;;5034309;28;20018;-67
2021/01/25 03:37:58;;;;;;;3.87;2.30;;;3.00;84.60;;;;;;5034482;28;20026;-67
2021/01/25 03:40:24;;;;;;;3.33;2.00;;;3.10;85.40;;;;;;5034335;28;20032;-67
2021/01/25 03:42:49;;;;;;;3.57;2.00;;;3.10;85.20;;;;;;5034467;28;20490;-67
2021/01/25 03:45:15;;;;;;;3.03;2.03;;;3.10;84.90;;;;;;5033925;28;20029;-67
2021/01/25 03:47:41;;;;;;;2.90;1.77;;;3.10;84.80;;;;;;5034026;28;20117;-66
2021/01/25 03:50:07;;;;;;;4.47;1.93;;;3.20;84.90;;;;;;5034190;28;20025;-65
2021/01/25 03:52:32;;;;;;;6.30;3.53;;;3.20;84.90;;;;;;5033998;28;20033;-66
2021/01/25 03:54:58;;;;;;;5.70;1.87;;;3.20;84.70;;;;;;5033918;28;20025;-66
2021/01/25 03:57:24;;;;;;;3.17;1.70;;;3.30;84.40;;;;;;5033794;28;20029;-65
2021/01/25 03:59:49;;;;;;;2.30;1.30;;;3.30;83.80;;;;;;5033726;28;20018;-65
2021/01/25 04:02:15;;;;;;;2.10;1.30;;;3.30;83.30;;;;;;5033635;28;20492;-64
2021/01/25 04:04:41;;;;;;;2.90;1.33;;;3.30;83.20;;;;;;5034054;28;20028;-65
2021/01/25 04:07:08;;;;;;;3.97;1.70;;;3.30;82.80;;;;;;5033383;28;20033;-66
2021/01/25 04:09:33;;;;;;;4.00;1.90;;;3.30;82.90;;;;;;5033857;28;20466;-66
2021/01/25 04:11:59;;;;;;;4.90;2.40;;;3.40;82.40;;;;;;5033874;28;20101;-65
2021/01/25 04:14:25;;;;;;;7.53;3.33;;;3.40;82.50;;;;;;5033834;28;20474;-63
2021/01/25 04:16:50;;;;;;;7.50;3.60;;;3.40;82.80;;;;;;5033754;28;20025;-64
2021/01/25 04:19:16;;;;;;;7.17;3.53;;;3.40;83.10;;;;;;5033358;28;20030;-66
2021/01/25 04:21:42;;;;;;;6.50;3.60;;;3.40;83.30;;;;;;5033187;28;20050;-64
2021/01/25 04:24:07;;;;;;;6.40;3.23;;;3.40;82.80;;;;;;5033501;28;20060;-65
2021/01/25 04:26:33;;;;;;;6.47;3.30;;;3.40;82.60;;;;;;5033448;28;20025;-64
2021/01/25 04:28:59;;;;;;;6.13;3.40;;;3.40;83.60;;;;;;5033278;28;20030;-66
2021/01/25 04:31:25;;;;;;;4.07;2.50;;;3.40;84.30;;;;;;5033559;28;20025;-65
2021/01/25 04:33:50;;;;;;;3.77;2.20;;;3.50;83.80;;;;;;5033634;28;20025;-67
2021/01/25 04:36:16;;;;;;;4.77;2.07;;;3.40;83.00;;;;;;5033496;28;20075;-67
2021/01/25 04:38:42;;;;;;;4.63;2.30;;;3.40;82.90;;;;;;5033099;28;20028;-66
2021/01/25 04:41:07;;;;;;;4.20;2.07;;;3.40;82.40;;;;;;5033309;28;20375;-66
2021/01/25 04:43:34;;;;;;;7.70;2.00;;;3.40;82.50;;;;;;5032902;28;20026;-67
2021/01/25 04:46:00;;;;;;;2.83;1.63;;;3.40;81.90;;;;;;5031726;28;20398;-66
2021/01/25 04:48:30;;;;;;;2.43;1.60;;;3.40;82.30;;;;;;5033189;28;20040;-67
2021/01/25 04:50:56;;;;;;;3.50;1.40;;;3.50;82.60;;;;;;5033108;28;20025;-66
2021/01/25 04:53:22;;;;;;;5.37;1.53;;;3.50;82.70;;;;;;5033218;28;20024;-66
2021/01/25 04:55:50;;;;;;;2.33;1.13;;;3.50;83.10;;;;;;5033236;28;20441;-67
2021/01/25 04:58:18;;;;;;;2.07;1.23;;;3.50;83.30;;;;;;5033019;28;20029;-66
2021/01/25 05:00:44;;;;;;;2.30;1.10;;;3.40;83.70;;;;;;5033081;28;20075;-66
2021/01/25 05:03:10;;;;;;;3.43;1.13;;;3.50;83.80;;;;;;5033174;28;20100;-65
2021/01/25 05:05:36;;;;;;;2.50;1.63;;;3.40;83.70;;;;;;5048239;28;20435;-67
2021/01/25 05:08:02;;;;;;;2.97;1.60;;;3.50;83.70;;;;;;5032730;28;20064;-66
2021/01/25 05:10:31;;;;;;;3.30;2.10;;;3.50;83.80;;;;;;5032979;28;20052;-67
2021/01/25 05:12:57;;;;;;;5.97;2.13;;;3.50;83.80;;;;;;5033015;28;20029;-67
2021/01/25 05:15:33;;;;;;;3.50;2.03;;;3.50;83.80;;;;;;5032825;28;20159;-66
2021/01/25 05:18:05;;;;;;;3.93;1.83;;;3.40;83.60;;;;;;5032844;28;20394;-67
2021/01/25 05:20:32;;;;;;;3.23;1.70;;;3.50;83.50;;;;;;5036959;28;20053;-67
2021/01/25 05:23:12;;;;;;;4.07;1.73;;;3.50;83.80;;;;;;5036976;28;20040;-67
2021/01/25 05:25:38;;;;;;;3.53;1.90;;;3.50;83.60;;;;;;5036748;28;20493;-67
2021/01/25 05:28:07;;;;;;;2.60;1.70;;;3.50;84.00;;;;;;5036526;28;20038;-65
2021/01/25 05:30:34;;;;;;;3.53;2.20;;;3.50;83.90;;;;;;5036672;28;20021;-66
2021/01/25 05:33:00;;;;;;;7.43;1.90;;;3.50;83.80;;;;;;5036708;28;20041;-66
2021/01/25 05:35:31;;;;;;;2.97;1.70;;;3.50;84.00;;;;;;5036333;28;20068;-65
2021/01/25 05:37:59;;;;;;;3.57;2.10;;;3.50;84.30;;;;;;5036067;28;20374;-66
2021/01/25 05:40:27;;;;;;;4.50;2.50;;;3.50;84.00;;;;;;5036464;28;20032;-66
2021/01/25 05:42:54;;;;;;;4.50;2.70;;;3.50;83.70;;;;;;5035226;28;20029;-66
2021/01/25 05:45:20;;;;;;;3.37;2.40;;;3.50;83.90;;;;;;5035967;28;20042;-66
2021/01/25 05:47:50;;;;;;;2.90;1.97;;;3.50;83.90;;;;;;5036130;28;20501;-65
2021/01/25 05:50:29;;;;;;;6.27;2.43;;;3.40;84.80;;;;;;5036023;28;20104;-67
2021/01/25 05:52:57;;;;;;;4.70;2.40;;;3.40;85.00;;;;;;5036306;28;20057;-67
2021/01/25 05:55:24;;;;;;;4.97;2.03;;;3.40;85.20;;;;;;5036599;28;20049;-66
2021/01/25 05:57:49;;;;;;;5.83;2.20;;;3.40;85.20;;;;;;5036286;28;20097;-66
2021/01/25 06:00:15;;;;;;;4.43;2.17;;;3.40;84.90;;;;;;5034957;28;20504;-66
2021/01/25 06:02:46;;;;;;;3.53;2.13;;;3.40;84.90;;;;;;5035592;28;20117;-66
2021/01/25 06:05:34;;;;;;;4.70;2.70;;;3.40;84.60;;;;;;5035989;28;20033;-66
2021/01/25 06:08:07;;;;;;;4.73;3.10;;;3.40;85.20;;;;;;5035731;28;20049;-66
2021/01/25 06:10:44;;;;;;;4.37;2.80;;;3.40;85.40;;;;;;5036010;28;20033;-66
2021/01/25 06:13:20;;;;;;;3.30;2.63;;;3.40;85.40;;;;;;5051363;28;20390;-66
2021/01/25 06:15:48;;;;;;;4.43;2.57;;;3.40;85.40;;;;;;5036059;28;20071;-66
2021/01/25 06:18:18;;;;;;;4.07;2.60;;;3.40;85.70;;;;;;5051252;28;20120;-66
2021/01/25 06:20:44;;;;;;;4.17;2.97;;;3.40;85.00;;;;;;5035790;28;20163;-66
2021/01/25 06:23:10;;;;;;;7.30;2.30;;;3.40;85.40;;;;;;5034458;28;20030;-66
2021/01/25 06:25:37;;;;;;;3.27;2.20;;;3.40;85.50;;;;;;5035680;28;20029;-66
2021/01/25 06:28:04;;;;;;;4.67;2.60;;;3.40;85.00;;;;;;5035447;28;20033;-66
2021/01/25 06:30:31;;;;;;;4.93;2.37;;;3.40;84.70;;;;;;5035287;28;20026;-67
2021/01/25 06:32:58;;;;;;;6.13;2.77;;;3.50;84.60;;;;;;5035689;28;20390;-67
2021/01/25 06:35:29;;;;;;;5.50;2.60;;;3.40;84.10;;;;;;5035560;28;20426;-67
2021/01/25 06:37:57;;;;;;;4.83;2.70;;;3.40;83.80;;;;;;5035432;28;20100;-66
2021/01/25 06:40:29;;;;;;;3.57;2.23;;;3.40;83.50;;;;;;5035598;28;20025;-66
2021/01/25 06:42:55;;;;;;;3.83;2.42;;;3.40;82.80;;;;;;5035331;28;20029;-67
2021/01/25 06:45:24;;;;;;;7.77;2.17;;;3.40;83.90;;;;;;5034743;28;20021;-67
2021/01/25 06:47:50;;;;;;;3.60;2.27;;;3.40;84.10;;;;;;5033936;28;20109;-67
2021/01/25 06:50:17;;;;;;;3.50;2.00;;;3.40;84.60;;;;;;5033563;28;20022;-67
2021/01/25 06:52:47;;;;;;;4.13;2.40;;;3.50;84.50;;;;;;5035040;28;20033;-67
2021/01/25 06:55:14;;;;;;;3.70;2.10;;;3.50;84.30;;;;;;5033666;28;20033;-66
2021/01/25 06:57:40;;;;;;;4.40;2.30;;;3.50;84.00;;;;;;5035004;28;20036;-67
2021/01/25 07:00:14;;;;;;;3.23;2.13;;;3.50;83.90;;;;;;5033760;28;20056;-66
2021/01/25 07:03:02;;;;;;;5.07;2.50;;;3.50;83.60;;;;;;5048966;28;20105;-67
2021/01/25 07:05:33;;;;;;;4.07;2.30;;;3.40;82.90;;;;;;5035154;28;20414;-65
2021/01/25 07:08:24;;;;;;;4.20;2.60;;;3.40;83.50;;;;;;5034847;28;20030;-67
2021/01/25 07:11:05;;;;;;;3.87;2.20;;;3.50;83.60;;;;;;5034764;28;20021;-67
2021/01/25 07:13:36;;;;;;;4.03;2.40;;;3.50;83.50;;;;;;5034681;28;20036;-67
2021/01/25 07:16:03;;;;;;;6.87;3.13;;;3.50;82.60;;;;;;5034742;28;20037;-67
2021/01/25 07:18:30;;;;;;;4.53;3.03;;;3.50;83.00;;;;;;5034348;28;20033;-67
2021/01/25 07:20:57;;;;;;;6.27;3.13;;;3.50;83.20;;;;;;5033660;28;20049;-67
2021/01/25 07:23:25;;;;;;;5.40;3.00;;;3.50;83.60;;;;;;5034150;28;20099;-67
2021/01/25 07:25:59;;;;;;;6.63;3.30;;;3.50;83.40;;;;;;5033987;28;20055;-68
2021/01/25 07:28:27;;;;;;;5.40;2.60;;;3.50;83.30;;;;;;5033957;28;20029;-67
2021/01/25 07:30:53;;;;;;;4.17;2.13;;;3.50;83.40;;;;;;5034291;28;20029;-67
2021/01/25 07:33:19;;;;;;;5.67;3.30;;;3.50;83.90;;;;;;5034513;28;20422;-67
2021/01/25 07:35:45;;;;;;;5.83;2.83;;;3.60;83.90;;;;;;5034550;28;20443;-66
2021/01/25 07:38:12;;;;;;;7.13;3.40;;;3.60;83.80;;;;;;5034585;28;20029;-67
2021/01/25 07:40:38;;;;;;;7.43;3.30;;;3.60;83.70;;;;;;5034174;28;20029;-67
2021/01/25 07:43:05;;;;;;;6.70;4.00;;;3.60;83.70;;;;;;5034348;28;20018;-67
2021/01/25 07:45:31;;;;;;;7.60;3.23;;;3.70;83.80;;;;;;5034692;28;20478;-67
2021/01/25 07:47:58;;;;;;;6.10;3.37;;;3.70;83.60;;;;;;5034259;28;20042;-66
2021/01/25 07:50:24;;;;;;;5.10;2.90;;;3.70;83.30;;;;;;5034414;28;20025;-66
2021/01/25 07:52:57;;;;;;;4.83;2.97;;;3.80;83.10;;;;;;5034421;28;20378;-66
2021/01/25 07:55:23;;;;;;;3.47;2.43;;;3.80;82.80;;;;;;5034543;28;20053;-67
2021/01/25 07:57:48;;;;;;;5.57;3.20;;;3.90;82.70;;;;;;5033336;28;20084;-67
2021/01/25 08:00:18;;;;;;;4.40;2.20;;;3.80;82.30;;;;;;5029955;28;20034;-68
2021/01/25 08:03:11;;;;;;;3.47;2.13;;;3.90;82.20;;;;;;5031854;28;20394;-68
2021/01/25 08:05:39;;;;;;;4.80;2.58;;;4.00;82.10;;;;;;5031349;28;20053;-67
2021/01/25 08:08:08;;;;;;;4.70;2.60;;;4.10;81.90;;;;;;5034065;28;20053;-67
2021/01/25 08:10:34;;;;;;;3.83;2.33;;;4.20;81.80;;;;;;5033792;28;20494;-67
2021/01/25 08:13:13;;;;;;;5.13;2.50;;;4.20;81.40;;;;;;5033900;28;20041;-67
2021/01/25 08:15:39;;;;;;;3.87;2.50;;;4.30;81.20;;;;;;5033784;28;20031;-67
2021/01/25 08:18:07;;;;;;;5.00;2.50;;;4.20;81.50;;;;;;5033819;28;20022;-67
2021/01/25 08:20:36;;;;;;;6.73;2.70;;;4.30;81.80;;;;;;5033465;28;20064;-68
2021/01/25 08:23:03;;;;;;;8.17;3.10;;;4.40;81.70;;;;;;5033740;28;20033;-68
2021/01/25 08:25:30;;;;;;;5.07;2.67;;;4.50;81.60;;;;;;5033792;28;20414;-68
2021/01/25 08:28:09;;;;;;;7.33;2.73;;;4.60;81.50;;;;;;5033267;28;20041;-69
2021/01/25 08:30:41;;;;;;;5.17;2.43;;;4.70;81.50;;;;;;5033654;28;20437;-69
2021/01/25 08:33:08;;;;;;;4.10;2.50;;;4.80;80.40;;;;;;5033497;28;20033;-69
2021/01/25 08:35:56;;;;;;;5.87;2.33;;;4.90;80.10;;;;;;5033247;28;20449;-69
2021/01/25 08:38:29;;;;;;;4.90;2.63;;;5.00;79.70;;;;;;5033510;28;20068;-68
2021/01/25 08:40:57;;;;;;;6.63;2.83;;;5.10;79.10;;;;;;5032127;28;20167;-68
2021/01/25 08:43:30;;;;;;;6.17;4.10;;;5.20;78.60;;;;;;5030289;28;20053;-69
2021/01/25 08:46:11;;;;;;;5.78;3.90;;;5.30;78.80;;;;;;5030664;28;20029;-68
2021/01/25 08:48:37;;;;;;;4.73;2.97;;;5.40;78.40;;;;;;5032926;28;20029;-67
2021/01/25 08:51:15;;;;;;;3.50;2.67;;;5.50;77.90;;;;;;5031981;28;20087;-69
2021/01/25 08:53:43;;;;;;;3.70;2.63;;;5.60;77.40;;;;;;5030969;28;20037;-68
2021/01/25 08:56:17;;;;;;;3.10;2.27;;;5.60;76.20;;;;;;5031773;28;20482;-68
2021/01/25 08:58:43;;;;;;;5.00;2.67;;;5.70;76.00;;;;;;5031173;28;20029;-69
2021/01/25 09:01:20;;;;;;;3.30;1.77;;;5.60;75.80;;;;;;5030502;28;20033;-69
2021/01/25 09:03:46;;;;;;;2.83;1.63;;;5.60;75.60;;;;;;5031228;28;20583;-68
2021/01/25 09:06:12;;;;;;;2.90;1.70;;;5.60;74.40;;;;;;5032940;28;20022;-68
2021/01/25 09:08:39;;;;;;;3.50;2.03;;;5.60;73.90;;;;;;5032999;28;20032;-69
2021/01/25 09:11:05;;;;;;;2.90;1.97;;;5.60;74.20;;;;;;5033127;28;20025;-68
2021/01/25 09:13:30;;;;;;;3.30;2.03;;;5.60;73.80;;;;;;5033332;28;20044;-69
2021/01/25 09:15:57;;;;;;;3.77;2.10;;;5.60;74.00;;;;;;5033164;28;20557;-69
2021/01/25 09:18:22;;;;;;;2.93;1.90;;;5.60;74.10;;;;;;5033090;28;20505;-68
2021/01/25 09:20:48;;;;;;;4.60;2.00;;;5.60;73.50;;;;;;5032662;28;20045;-67
2021/01/25 09:23:14;;;;;;;2.77;1.93;;;5.60;74.00;;;;;;5031505;28;20037;-68
2021/01/25 09:25:39;;;;;;;2.77;1.80;;;5.60;74.40;;;;;;5030223;28;20009;-68
2021/01/25 09:28:05;;;;;;;2.97;1.87;;;5.60;74.70;;;;;;5029809;28;20037;-68
2021/01/25 09:30:31;;;;;;;3.40;2.00;;;5.60;74.70;;;;;;5031971;28;20022;-68
2021/01/25 09:32:57;;;;;;;3.47;2.20;;;5.70;74.60;;;;;;5032593;28;20028;-68
2021/01/25 09:35:23;;;;;;;4.13;2.50;;;5.70;74.50;;;;;;5032936;28;20101;-68
2021/01/25 09:37:49;;;;;;;4.63;2.20;;;5.80;74.50;;;;;;5032514;28;20032;-68
2021/01/25 09:40:16;;;;;;;5.97;2.13;;;5.80;74.40;;;;;;5032924;28;20022;-68
2021/01/25 09:42:42;;;;;;;3.53;2.23;;;5.90;74.80;;;;;;5033059;28;20484;-68
2021/01/25 09:45:11;;;;;;;2.83;1.80;;;6.00;74.00;;;;;;5032670;28;20045;-68
2021/01/25 09:47:37;;;;;;;4.77;2.83;;;6.20;73.80;;;;;;5032549;28;20045;-68
2021/01/25 09:50:04;;;;;;;3.57;1.90;;;6.30;73.30;;;;;;5032976;28;20105;-68
2021/01/25 09:52:29;;;;;;;4.30;2.53;;;6.40;72.70;;;;;;5032652;28;20025;-68
2021/01/25 09:54:55;;;;;;;6.13;2.30;;;6.50;71.70;;;;;;5032477;28;20021;-69
2021/01/25 09:57:21;;;;;;;6.67;2.27;;;6.50;71.60;;;;;;5032662;28;20087;-68
2021/01/25 09:59:47;;;;;;;2.97;1.97;;;6.50;71.10;;;;;;5032585;28;20033;-68
2021/01/25 10:02:13;;;;;;;4.00;2.23;;;6.50;70.80;;;;;;5032536;28;20087;-68
2021/01/25 10:04:38;;;;;;;4.17;2.43;;;6.50;70.60;;;;;;5033934;28;20452;-68
2021/01/25 10:07:04;;;;;;;4.53;1.87;;;6.40;70.70;;;;;;5036362;28;20084;-68
2021/01/25 10:09:30;;;;;;;3.90;2.30;;;6.40;70.50;;;;;;5036195;28;20446;-68
2021/01/25 10:11:56;;;;;;;3.97;1.90;;;6.40;70.40;;;;;;5036272;28;20120;-68
2021/01/25 10:14:22;;;;;;;3.10;1.93;;;6.40;70.80;;;;;;5036277;28;20096;-68
2021/01/25 10:16:48;;;;;;;3.40;2.13;;;6.40;70.70;;;;;;5035731;28;20020;-68
2021/01/25 10:19:13;;;;;;;2.67;1.77;;;6.40;70.70;;;;;;5036001;28;20026;-68
2021/01/25 10:21:39;;;;;;;3.63;2.13;;;6.50;70.90;;;;;;5035914;28;20050;-68
2021/01/25 10:24:05;;;;;;;4.33;2.40;;;6.50;70.40;;;;;;5035799;28;20082;-69
2021/01/25 10:26:31;;;;;;;3.73;2.23;;;6.60;70.00;;;;;;5035885;28;20029;-68
2021/01/25 10:28:57;;;;;;;4.23;2.73;;;6.70;69.80;;;;;;5034652;28;20612;-69
2021/01/25 10:31:22;;;;;;;3.53;2.00;;;6.70;69.80;;;;;;5035656;28;20029;-68
2021/01/25 10:33:48;;;;;;;6.53;2.10;;;6.70;69.80;;;;;;5035745;28;20032;-69
2021/01/25 10:36:14;;;;;;;3.20;1.77;;;6.80;69.60;;;;;;5035993;28;20022;-68
2021/01/25 10:38:40;;;;;;;2.47;1.67;;;6.80;69.60;;;;;;5035743;28;20419;-68
2021/01/25 10:41:06;;;;;;;4.80;2.13;;;6.80;69.60;;;;;;5035741;28;20032;-69
2021/01/25 10:43:32;;;;;;;2.90;1.80;;;6.80;69.90;;;;;;5035709;28;20017;-68
2021/01/25 10:45:58;;;;;;;3.53;1.80;;;6.90;69.90;;;;;;5035155;28;20041;-68
2021/01/25 10:48:23;;;;;;;3.27;1.80;;;6.90;69.50;;;;;;5035458;28;20501;-68
2021/01/25 10:50:49;;;;;;;4.00;1.73;;;7.00;69.10;;;;;;5035659;28;20018;-68
2021/01/25 10:53:15;;;;;;;2.40;1.47;;;7.10;69.00;;;;;;5035437;28;20079;-68
2021/01/25 10:55:40;;;;;;;3.50;2.80;;;7.20;69.10;;;;;;5035642;28;20017;-68
2021/01/25 10:58:06;;;;;;;4.83;2.13;;;7.20;69.20;;;;;;5035419;28;20076;-68
2021/01/25 11:00:33;;;;;;;3.63;2.23;;;7.30;69.30;;;;;;5035345;28;20387;-68
2021/01/25 11:02:58;;;;;;;2.73;1.70;;;7.40;68.90;;;;;;5035401;28;20029;-68
2021/01/25 11:05:26;;;;;;;3.70;2.53;;;7.40;68.70;;;;;;5035408;28;20022;-69
2021/01/25 11:07:53;;;;;;;4.30;3.07;;;7.40;67.50;;;;;;5035011;28;20033;-68
2021/01/25 11:10:25;;;;;;;3.63;2.30;;;7.50;67.90;;;;;;5035074;28;20025;-68
2021/01/25 11:12:51;;;;;;;3.88;1.83;;;7.60;67.80;;;;;;5034989;28;20021;-68
2021/01/25 11:15:19;;;;;;;2.37;1.57;;;7.60;67.50;;;;;;5034347;28;20517;-68
2021/01/25 11:17:45;;;;;;;3.00;1.80;;;7.60;67.40;;;;;;5034065;28;20029;-68
2021/01/25 11:20:11;;;;;;;4.10;2.30;;;7.60;67.90;;;;;;5034910;28;20071;-69
2021/01/25 11:22:37;;;;;;;5.30;2.23;;;7.70;68.40;;;;;;5034556;28;20041;-68
2021/01/25 11:25:03;;;;;;;3.87;1.87;;;7.70;69.00;;;;;;5035134;28;20568;-69
2021/01/25 11:27:29;;;;;;;3.97;1.90;;;7.80;69.40;;;;;;5034198;28;20025;-69
2021/01/25 11:29:55;;;;;;;6.13;2.10;;;7.80;69.80;;;;;;5034756;28;20028;-68
2021/01/25 11:32:20;;;;;;;3.03;1.73;;;7.90;69.80;;;;;;5034570;28;20021;-68
2021/01/25 11:34:46;;;;;;;2.90;2.07;;;8.00;69.60;;;;;;5034467;28;20037;-67
2021/01/25 11:37:12;;;;;;;3.23;1.80;;;8.00;70.30;;;;;;5034506;28;20060;-67
2021/01/25 11:39:40;;;;;;;4.93;2.17;;;8.00;69.90;;;;;;5034160;28;20116;-67
2021/01/25 11:42:06;;;;;;;6.43;2.27;;;8.00;70.00;;;;;;5034424;28;20046;-68
2021/01/25 11:44:32;;;;;;;4.50;2.47;;;8.00;70.10;;;;;;5034431;28;20057;-68
2021/01/25 11:46:57;;;;;;;3.20;2.10;;;8.00;70.20;;;;;;5033801;28;20045;-68
2021/01/25 11:49:23;;;;;;;2.63;1.80;;;8.00;69.80;;;;;;5034262;28;20121;-67
2021/01/25 11:51:49;;;;;;;4.67;2.37;;;7.90;69.70;;;;;;5034196;28;20530;-68
2021/01/25 11:54:15;;;;;;;3.07;1.90;;;7.90;70.00;;;;;;5034138;28;20454;-68
2021/01/25 11:56:40;;;;;;;3.13;2.07;;;7.90;70.40;;;;;;5034121;28;20056;-67
2021/01/25 11:59:08;;;;;;;3.53;1.83;;;7.90;70.30;;;;;;5034022;28;20026;-68
2021/01/25 12:01:33;;;;;;;3.17;1.80;;;7.90;70.50;;;;;;5034059;28;20022;-69
2021/01/25 12:03:59;;;;;;;3.37;1.90;;;7.90;70.00;;;;;;5033900;28;20489;-67
2021/01/25 12:06:25;;;;;;;4.20;1.60;;;7.90;69.80;;;;;;5033418;28;20172;-68
2021/01/25 12:08:51;;;;;;;3.23;1.67;;;7.90;69.10;;;;;;5033265;28;20034;-68
2021/01/25 12:11:18;;;;;;;2.97;1.83;;;7.90;68.60;;;;;;5033482;28;20386;-68
2021/01/25 12:13:43;;;;;;;2.63;1.67;;;7.90;68.80;;;;;;5033785;28;20052;-68
2021/01/25 12:16:15;;;;;;;3.87;1.53;;;7.90;68.40;;;;;;5033450;28;20044;-68
2021/01/25 12:18:44;;;;;;;4.00;1.80;;;7.90;68.00;;;;;;5033711;28;20025;-68
2021/01/25 12:21:11;;;;;;;2.53;1.33;;;7.90;68.00;;;;;;5033471;28;20111;-67
2021/01/25 12:23:37;;;;;;;2.77;2.00;;;7.90;68.40;;;;;;5031749;28;20030;-68
2021/01/25 12:26:02;;;;;;;3.83;2.10;;;7.90;67.50;;;;;;5031080;28;20045;-68
2021/01/25 12:28:28;;;;;;;3.37;2.13;;;7.90;65.90;;;;;;5031634;28;20041;-68
2021/01/25 12:30:54;;;;;;;5.53;1.73;;;7.90;66.30;;;;;;5033731;28;20027;-68
2021/01/25 12:33:20;;;;;;;5.60;2.37;;;7.90;66.30;;;;;;5033250;28;20026;-68
2021/01/25 12:35:45;;;;;;;6.17;2.10;;;7.80;66.20;;;;;;5033377;28;20033;-68
2021/01/25 12:38:11;;;;;;;3.50;1.93;;;7.90;66.90;;;;;;5033111;28;20025;-68
2021/01/25 12:40:37;;;;;;;3.03;1.83;;;7.80;67.20;;;;;;5033092;28;20048;-69
2021/01/25 12:43:03;;;;;;;3.83;2.13;;;7.90;67.50;;;;;;5033089;28;20474;-68
2021/01/25 12:45:29;;;;;;;3.77;2.20;;;7.90;68.00;;;;;;5033102;28;20029;-68
2021/01/25 12:47:54;;;;;;;4.00;2.00;;;7.90;68.10;;;;;;5032885;28;20490;-67
2021/01/25 12:50:21;;;;;;;9.00;1.63;;;7.90;68.70;;;;;;5031381;28;20397;-68
2021/01/25 12:52:47;;;;;;;2.87;1.73;;;7.90;69.00;;;;;;5030534;28;20033;-68
2021/01/25 12:55:13;;;;;;;6.20;2.10;;;7.90;68.60;;;;;;5030500;28;20156;-68
2021/01/25 12:57:44;;;;;;;4.37;2.20;;;7.90;68.90;;;;;;5032706;28;20025;-68
2021/01/25 13:00:24;;;;;;;4.30;2.00;;;7.90;69.20;;;;;;5033628;28;20367;-69